sensor_id;sensor_type;location;lat;lon;timestamp;pressure;altitude;pressure_sealevel;temperature
76347;BMP280;65171;48.378;10.010;2023-01-16T00:02:02;95026.44;;;1.55
76347;BMP280;65171;48.378;10.010;2023-01-16T00:04:27;95004.44;;;1.28
76347;BMP280;65171;48.378;10.010;2023-01-16T00:06:53;95028.38;;;1.63
76347;BMP280;65171;48.378;10.010;2023-01-16T00:09:19;95028.84;;;1.62
76347;BMP280;65171;48.378;10.010;2023-01-16T00:11:44;94991.72;;;1.50
76347;BMP280;65171;48.378;10.010;2023-01-16T00:14:09;95007.06;;;1.60
76347;BMP280;65171;48.378;10.010;2023-01-16T00:16:34;94972.66;;;1.43
76347;BMP280;65171;48.378;10.010;2023-01-16T00:18:59;94995.41;;;1.56
76347;BMP280;65171;48.378;10.010;2023-01-16T00:21:25;95000.56;;;1.63
76347;BMP280;65171;48.378;10.010;2023-01-16T00:23:50;94982.66;;;1.64
76347;BMP280;65171;48.378;10.010;2023-01-16T00:26:15;94981.69;;;1.67
76347;BMP280;65171;48.378;10.010;2023-01-16T00:28:40;94978.75;;;1.71
76347;BMP280;65171;48.378;10.010;2023-01-16T00:31:06;94976.03;;;1.62
76347;BMP280;65171;48.378;10.010;2023-01-16T00:33:34;94968.75;;;1.79
76347;BMP280;65171;48.378;10.010;2023-01-16T00:36:00;94944.22;;;1.48
76347;BMP280;65171;48.378;10.010;2023-01-16T00:38:25;94930.78;;;1.47
76347;BMP280;65171;48.378;10.010;2023-01-16T00:40:51;94914.78;;;1.42
76347;BMP280;65171;48.378;10.010;2023-01-16T00:43:16;94913.44;;;1.37
76347;BMP280;65171;48.378;10.010;2023-01-16T00:45:41;94954.19;;;1.55
76347;BMP280;65171;48.378;10.010;2023-01-16T00:48:06;94911.97;;;1.27
76347;BMP280;65171;48.378;10.010;2023-01-16T00:50:32;94960.69;;;1.52
76347;BMP280;65171;48.378;10.010;2023-01-16T00:52:58;94929.66;;;1.53
76347;BMP280;65171;48.378;10.010;2023-01-16T00:55:23;94926.69;;;1.57
76347;BMP280;65171;48.378;10.010;2023-01-16T00:57:49;94921.91;;;1.57
76347;BMP280;65171;48.378;10.010;2023-01-16T01:00:15;94924.38;;;1.70
76347;BMP280;65171;48.378;10.010;2023-01-16T01:02:40;94912.03;;;1.56
76347;BMP280;65171;48.378;10.010;2023-01-16T01:05:06;94918.06;;;1.55
76347;BMP280;65171;48.378;10.010;2023-01-16T01:07:32;94891.69;;;1.36
76347;BMP280;65171;48.378;10.010;2023-01-16T01:09:57;94917.09;;;1.58
76347;BMP280;65171;48.378;10.010;2023-01-16T01:12:22;94890.56;;;1.42
76347;BMP280;65171;48.378;10.010;2023-01-16T01:14:47;94899.00;;;1.48
76347;BMP280;65171;48.378;10.010;2023-01-16T01:17:12;94884.41;;;1.38
76347;BMP280;65171;48.378;10.010;2023-01-16T01:19:38;94873.66;;;1.02
76347;BMP280;65171;48.378;10.010;2023-01-16T01:22:03;94900.00;;;1.21
76347;BMP280;65171;48.378;10.010;2023-01-16T01:24:28;94894.59;;;1.41
76347;BMP280;65171;48.378;10.010;2023-01-16T01:26:53;94860.75;;;1.14
76347;BMP280;65171;48.378;10.010;2023-01-16T01:29:18;94872.81;;;1.25
76347;BMP280;65171;48.378;10.010;2023-01-16T01:31:44;94868.50;;;1.24
76347;BMP280;65171;48.378;10.010;2023-01-16T01:34:09;94787.41;;;0.53
76347;BMP280;65171;48.378;10.010;2023-01-16T01:36:34;94872.94;;;1.31
76347;BMP280;65171;48.378;10.010;2023-01-16T01:38:59;94861.59;;;1.05
76347;BMP280;65171;48.378;10.010;2023-01-16T01:41:24;94860.84;;;1.19
76347;BMP280;65171;48.378;10.010;2023-01-16T01:43:51;94867.94;;;1.20
76347;BMP280;65171;48.378;10.010;2023-01-16T01:49:12;94834.97;;;0.84
76347;BMP280;65171;48.378;10.010;2023-01-16T01:51:41;94807.47;;;0.72
76347;BMP280;65171;48.378;10.010;2023-01-16T01:54:20;94826.63;;;0.84
76347;BMP280;65171;48.378;10.010;2023-01-16T01:56:51;94844.81;;;0.85
76347;BMP280;65171;48.378;10.010;2023-01-16T01:59:22;94814.31;;;0.62
76347;BMP280;65171;48.378;10.010;2023-01-16T02:01:51;94811.63;;;0.53
76347;BMP280;65171;48.378;10.010;2023-01-16T02:04:19;94832.56;;;0.77
76347;BMP280;65171;48.378;10.010;2023-01-16T02:06:59;94801.81;;;0.66
76347;BMP280;65171;48.378;10.010;2023-01-16T02:09:26;94811.75;;;0.73
76347;BMP280;65171;48.378;10.010;2023-01-16T02:12:27;94808.91;;;0.67
76347;BMP280;65171;48.378;10.010;2023-01-16T02:14:46;94812.09;;;0.51
76347;BMP280;65171;48.378;10.010;2023-01-16T02:17:17;94801.06;;;0.80
76347;BMP280;65171;48.378;10.010;2023-01-16T02:30:34;94742.88;;;0.57
76347;BMP280;65171;48.378;10.010;2023-01-16T02:36:02;94756.66;;;0.66
76347;BMP280;65171;48.378;10.010;2023-01-16T02:46:52;94624.44;;;0.34
76347;BMP280;65171;48.378;10.010;2023-01-16T02:49:28;94700.28;;;0.74
76347;BMP280;65171;48.378;10.010;2023-01-16T02:52:05;94678.28;;;0.85
76347;BMP280;65171;48.378;10.010;2023-01-16T02:54:37;94697.63;;;0.94
76347;BMP280;65171;48.378;10.010;2023-01-16T02:57:09;94670.56;;;0.60
76347;BMP280;65171;48.378;10.010;2023-01-16T02:59:35;94656.97;;;0.48
76347;BMP280;65171;48.378;10.010;2023-01-16T03:02:01;94670.63;;;0.51
76347;BMP280;65171;48.378;10.010;2023-01-16T03:07:20;94646.63;;;0.63
76347;BMP280;65171;48.378;10.010;2023-01-16T03:13:16;94588.22;;;0.37
76347;BMP280;65171;48.378;10.010;2023-01-16T03:18:40;94625.84;;;0.73
76347;BMP280;65171;48.378;10.010;2023-01-16T03:23:52;94573.94;;;0.44
76347;BMP280;65171;48.378;10.010;2023-01-16T03:29:17;94599.28;;;0.66
76347;BMP280;65171;48.378;10.010;2023-01-16T03:36:56;94577.38;;;0.54
76347;BMP280;65171;48.378;10.010;2023-01-16T03:39:25;94578.91;;;0.40
76347;BMP280;65171;48.378;10.010;2023-01-16T03:41:53;94582.72;;;0.57
76347;BMP280;65171;48.378;10.010;2023-01-16T03:44:27;94575.84;;;0.53
76347;BMP280;65171;48.378;10.010;2023-01-16T03:46:54;94570.88;;;0.57
76347;BMP280;65171;48.378;10.010;2023-01-16T03:49:40;94564.75;;;0.53
76347;BMP280;65171;48.378;10.010;2023-01-16T03:52:10;94510.38;;;0.26
76347;BMP280;65171;48.378;10.010;2023-01-16T03:54:59;94522.50;;;0.43
76347;BMP280;65171;48.378;10.010;2023-01-16T03:57:31;94536.84;;;0.42
76347;BMP280;65171;48.378;10.010;2023-01-16T03:59:58;94528.59;;;0.47
76347;BMP280;65171;48.378;10.010;2023-01-16T04:02:38;94491.16;;;0.23
76347;BMP280;65171;48.378;10.010;2023-01-16T04:05:16;94457.72;;;0.12
76347;BMP280;65171;48.378;10.010;2023-01-16T04:07:52;94467.63;;;0.33
76347;BMP280;65171;48.378;10.010;2023-01-16T04:10:22;94492.44;;;0.56
76347;BMP280;65171;48.378;10.010;2023-01-16T04:12:53;94500.84;;;0.47
76347;BMP280;65171;48.378;10.010;2023-01-16T04:15:21;94494.59;;;0.32
76347;BMP280;65171;48.378;10.010;2023-01-16T04:17:48;94449.78;;;0.05
76347;BMP280;65171;48.378;10.010;2023-01-16T04:20:14;94444.75;;;0.03
76347;BMP280;65171;48.378;10.010;2023-01-16T04:22:39;94480.44;;;0.30
76347;BMP280;65171;48.378;10.010;2023-01-16T04:25:07;94464.38;;;0.34
76347;BMP280;65171;48.378;10.010;2023-01-16T04:27:33;94463.25;;;0.26
76347;BMP280;65171;48.378;10.010;2023-01-16T04:29:58;94420.75;;;0.00
76347;BMP280;65171;48.378;10.010;2023-01-16T04:32:23;94417.00;;;0.18
76347;BMP280;65171;48.378;10.010;2023-01-16T04:34:48;94410.50;;;0.06
76347;BMP280;65171;48.378;10.010;2023-01-16T04:37:16;94429.88;;;0.21
76347;BMP280;65171;48.378;10.010;2023-01-16T04:39:41;94417.50;;;0.36
76347;BMP280;65171;48.378;10.010;2023-01-16T04:42:10;94368.22;;;-0.23
76347;BMP280;65171;48.378;10.010;2023-01-16T04:44:36;94405.03;;;0.26
76347;BMP280;65171;48.378;10.010;2023-01-16T04:47:01;94391.75;;;0.16
76347;BMP280;65171;48.378;10.010;2023-01-16T04:49:26;94355.06;;;-0.13
76347;BMP280;65171;48.378;10.010;2023-01-16T04:51:51;94389.47;;;0.14
76347;BMP280;65171;48.378;10.010;2023-01-16T04:54:18;94383.72;;;0.18
76347;BMP280;65171;48.378;10.010;2023-01-16T04:56:44;94380.66;;;0.16
76347;BMP280;65171;48.378;10.010;2023-01-16T04:59:10;94366.00;;;-0.05
76347;BMP280;65171;48.378;10.010;2023-01-16T05:01:35;94376.34;;;-0.05
76347;BMP280;65171;48.378;10.010;2023-01-16T05:04:02;94389.41;;;-0.06
76347;BMP280;65171;48.378;10.010;2023-01-16T05:06:27;94340.09;;;-0.36
76347;BMP280;65171;48.378;10.010;2023-01-16T05:08:53;94358.69;;;-0.22
76347;BMP280;65171;48.378;10.010;2023-01-16T05:11:18;94321.81;;;-0.62
76347;BMP280;65171;48.378;10.010;2023-01-16T05:13:43;94315.31;;;-0.59
76347;BMP280;65171;48.378;10.010;2023-01-16T05:16:08;94343.31;;;0.11
76347;BMP280;65171;48.378;10.010;2023-01-16T05:18:33;94340.28;;;0.09
76347;BMP280;65171;48.378;10.010;2023-01-16T05:20:59;94303.41;;;-0.31
76347;BMP280;65171;48.378;10.010;2023-01-16T05:23:24;94314.66;;;-0.20
76347;BMP280;65171;48.378;10.010;2023-01-16T05:25:50;94328.50;;;-0.20
76347;BMP280;65171;48.378;10.010;2023-01-16T05:28:15;94301.94;;;-0.27
76347;BMP280;65171;48.378;10.010;2023-01-16T05:30:40;94298.47;;;-0.41
76347;BMP280;65171;48.378;10.010;2023-01-16T05:33:05;94307.44;;;-0.32
76347;BMP280;65171;48.378;10.010;2023-01-16T05:35:30;94298.47;;;-0.41
76347;BMP280;65171;48.378;10.010;2023-01-16T05:37:56;94267.41;;;-0.31
76347;BMP280;65171;48.378;10.010;2023-01-16T05:40:21;94283.16;;;0.17
76347;BMP280;65171;48.378;10.010;2023-01-16T05:42:46;94242.00;;;-0.29
76347;BMP280;65171;48.378;10.010;2023-01-16T05:45:11;94259.81;;;-0.50
76347;BMP280;65171;48.378;10.010;2023-01-16T05:47:36;94258.53;;;-0.35
76347;BMP280;65171;48.378;10.010;2023-01-16T05:50:02;94264.78;;;-0.20
76347;BMP280;65171;48.378;10.010;2023-01-16T05:52:28;94259.50;;;-0.18
76347;BMP280;65171;48.378;10.010;2023-01-16T05:54:54;94209.09;;;-0.42
76347;BMP280;65171;48.378;10.010;2023-01-16T05:57:19;94226.91;;;-0.28
76347;BMP280;65171;48.378;10.010;2023-01-16T05:59:47;94230.81;;;-0.35
76347;BMP280;65171;48.378;10.010;2023-01-16T06:02:13;94228.56;;;-0.36
76347;BMP280;65171;48.378;10.010;2023-01-16T06:04:38;94222.44;;;-0.40
76347;BMP280;65171;48.378;10.010;2023-01-16T06:07:03;94213.81;;;-0.28
76347;BMP280;65171;48.378;10.010;2023-01-16T06:09:28;94198.09;;;-0.36
76347;BMP280;65171;48.378;10.010;2023-01-16T06:11:54;94190.06;;;-0.34
76347;BMP280;65171;48.378;10.010;2023-01-16T06:14:19;94169.34;;;-0.59
76347;BMP280;65171;48.378;10.010;2023-01-16T06:16:44;94166.09;;;-0.57
76347;BMP280;65171;48.378;10.010;2023-01-16T06:19:09;94140.75;;;-0.70
76347;BMP280;65171;48.378;10.010;2023-01-16T06:21:34;94174.44;;;-0.52
76347;BMP280;65171;48.378;10.010;2023-01-16T06:24:00;94132.84;;;-0.77
76347;BMP280;65171;48.378;10.010;2023-01-16T06:26:25;94115.28;;;-0.74
76347;BMP280;65171;48.378;10.010;2023-01-16T06:28:50;94122.13;;;-0.70
76347;BMP280;65171;48.378;10.010;2023-01-16T06:31:15;94111.19;;;-0.79
76347;BMP280;65171;48.378;10.010;2023-01-16T06:33:40;94136.03;;;-0.44
76347;BMP280;65171;48.378;10.010;2023-01-16T06:36:05;94114.66;;;-0.64
76347;BMP280;65171;48.378;10.010;2023-01-16T06:38:31;94123.88;;;-0.52
76347;BMP280;65171;48.378;10.010;2023-01-16T06:40:56;94098.38;;;-0.56
76347;BMP280;65171;48.378;10.010;2023-01-16T06:43:26;94102.53;;;-0.46
76347;BMP280;65171;48.378;10.010;2023-01-16T06:45:52;94067.53;;;-0.69
76347;BMP280;65171;48.378;10.010;2023-01-16T06:48:17;94092.00;;;-0.82
76347;BMP280;65171;48.378;10.010;2023-01-16T06:50:42;94079.09;;;-0.91
76347;BMP280;65171;48.378;10.010;2023-01-16T06:53:08;94077.44;;;-0.83
76347;BMP280;65171;48.378;10.010;2023-01-16T06:55:33;94086.47;;;-0.82
76347;BMP280;65171;48.378;10.010;2023-01-16T06:57:58;94032.75;;;-0.96
76347;BMP280;65171;48.378;10.010;2023-01-16T07:00:23;94066.56;;;-0.66
76347;BMP280;65171;48.378;10.010;2023-01-16T07:02:51;94024.50;;;-0.90
76347;BMP280;65171;48.378;10.010;2023-01-16T07:05:17;94052.44;;;-0.68
76347;BMP280;65171;48.378;10.010;2023-01-16T07:07:42;94029.75;;;-0.72
76347;BMP280;65171;48.378;10.010;2023-01-16T07:10:08;94036.22;;;-0.55
76347;BMP280;65171;48.378;10.010;2023-01-16T07:12:33;94027.19;;;-0.56
76347;BMP280;65171;48.378;10.010;2023-01-16T07:14:58;94015.06;;;-0.58
76347;BMP280;65171;48.378;10.010;2023-01-16T07:17:23;94024.59;;;-0.39
76347;BMP280;65171;48.378;10.010;2023-01-16T07:19:49;93999.28;;;-0.52
76347;BMP280;65171;48.378;10.010;2023-01-16T07:22:14;93994.72;;;-0.55
76347;BMP280;65171;48.378;10.010;2023-01-16T07:24:41;93987.72;;;-0.51
76347;BMP280;65171;48.378;10.010;2023-01-16T07:27:06;94006.00;;;-0.33
76347;BMP280;65171;48.378;10.010;2023-01-16T07:29:32;93988.69;;;-0.54
76347;BMP280;65171;48.378;10.010;2023-01-16T07:32:00;93999.91;;;-0.38
76347;BMP280;65171;48.378;10.010;2023-01-16T07:34:26;93996.44;;;-0.32
76347;BMP280;65171;48.378;10.010;2023-01-16T07:36:51;93942.06;;;-0.35
76347;BMP280;65171;48.378;10.010;2023-01-16T07:39:16;93966.72;;;-0.07
76347;BMP280;65171;48.378;10.010;2023-01-16T07:41:41;93964.84;;;0.10
76347;BMP280;65171;48.378;10.010;2023-01-16T07:44:06;93960.84;;;0.17
76347;BMP280;65171;48.378;10.010;2023-01-16T07:46:32;93968.03;;;0.29
76347;BMP280;65171;48.378;10.010;2023-01-16T07:48:57;93927.69;;;-0.08
76347;BMP280;65171;48.378;10.010;2023-01-16T07:51:23;93960.66;;;0.20
76347;BMP280;65171;48.378;10.010;2023-01-16T07:53:48;93918.72;;;0.07
76347;BMP280;65171;48.378;10.010;2023-01-16T07:56:13;93943.09;;;0.34
76347;BMP280;65171;48.378;10.010;2023-01-16T07:58:38;93934.53;;;0.32
76347;BMP280;65171;48.378;10.010;2023-01-16T08:01:04;93906.72;;;0.21
76347;BMP280;65171;48.378;10.010;2023-01-16T08:03:29;93918.50;;;0.53
76347;BMP280;65171;48.378;10.010;2023-01-16T08:05:56;93915.75;;;0.58
76347;BMP280;65171;48.378;10.010;2023-01-16T08:08:21;93899.63;;;0.62
76347;BMP280;65171;48.378;10.010;2023-01-16T08:10:46;93897.69;;;0.74
76347;BMP280;65171;48.378;10.010;2023-01-16T08:13:11;93876.19;;;0.63
76347;BMP280;65171;48.378;10.010;2023-01-16T08:15:37;93816.56;;;0.31
76347;BMP280;65171;48.378;10.010;2023-01-16T08:18:02;93883.28;;;0.75
76347;BMP280;65171;48.378;10.010;2023-01-16T08:20:27;93893.22;;;0.93
76347;BMP280;65171;48.378;10.010;2023-01-16T08:22:52;93871.75;;;0.88
76347;BMP280;65171;48.378;10.010;2023-01-16T08:25:19;93883.41;;;1.03
76347;BMP280;65171;48.378;10.010;2023-01-16T08:27:45;93883.69;;;1.16
76347;BMP280;65171;48.378;10.010;2023-01-16T08:30:10;93880.94;;;1.32
76347;BMP280;65171;48.378;10.010;2023-01-16T08:32:36;93857.72;;;1.35
76347;BMP280;65171;48.378;10.010;2023-01-16T08:35:02;93837.00;;;1.25
76347;BMP280;65171;48.378;10.010;2023-01-16T08:37:27;93870.13;;;1.51
76347;BMP280;65171;48.378;10.010;2023-01-16T08:39:52;93847.41;;;1.52
76347;BMP280;65171;48.378;10.010;2023-01-16T08:42:17;93837.78;;;1.59
76347;BMP280;65171;48.378;10.010;2023-01-16T08:44:43;93828.94;;;1.49
76347;BMP280;65171;48.378;10.010;2023-01-16T08:47:12;93823.91;;;1.53
76347;BMP280;65171;48.378;10.010;2023-01-16T08:49:38;93853.72;;;1.69
76347;BMP280;65171;48.378;10.010;2023-01-16T08:52:04;93855.72;;;1.69
76347;BMP280;65171;48.378;10.010;2023-01-16T08:54:29;93825.44;;;1.60
76347;BMP280;65171;48.378;10.010;2023-01-16T08:56:55;93835.53;;;1.68
76347;BMP280;65171;48.378;10.010;2023-01-16T08:59:20;93821.38;;;1.55
76347;BMP280;65171;48.378;10.010;2023-01-16T09:01:45;93800.69;;;1.45
76347;BMP280;65171;48.378;10.010;2023-01-16T09:04:10;93785.53;;;1.35
76347;BMP280;65171;48.378;10.010;2023-01-16T09:06:36;93803.69;;;1.53
76347;BMP280;65171;48.378;10.010;2023-01-16T09:09:03;93797.38;;;1.58
76347;BMP280;65171;48.378;10.010;2023-01-16T09:11:28;93776.69;;;1.48
76347;BMP280;65171;48.378;10.010;2023-01-16T09:13:53;93768.59;;;1.61
76347;BMP280;65171;48.378;10.010;2023-01-16T09:16:21;93757.22;;;1.59
76347;BMP280;65171;48.378;10.010;2023-01-16T09:18:47;93747.38;;;1.63
76347;BMP280;65171;48.378;10.010;2023-01-16T09:21:13;93762.78;;;1.75
76347;BMP280;65171;48.378;10.010;2023-01-16T09:23:38;93736.78;;;1.62
76347;BMP280;65171;48.378;10.010;2023-01-16T09:26:03;93702.47;;;1.43
76347;BMP280;65171;48.378;10.010;2023-01-16T09:28:29;93689.09;;;1.30
76347;BMP280;65171;48.378;10.010;2023-01-16T09:30:54;93651.25;;;1.16
76347;BMP280;65171;48.378;10.010;2023-01-16T09:33:19;93701.66;;;1.59
76347;BMP280;65171;48.378;10.010;2023-01-16T09:35:44;93709.75;;;1.57
76347;BMP280;65171;48.378;10.010;2023-01-16T09:38:09;93717.31;;;1.73
76347;BMP280;65171;48.378;10.010;2023-01-16T09:40:35;93728.63;;;1.86
76347;BMP280;65171;48.378;10.010;2023-01-16T09:43:08;93737.94;;;1.99
76347;BMP280;65171;48.378;10.010;2023-01-16T09:45:39;93721.06;;;1.86
76347;BMP280;65171;48.378;10.010;2023-01-16T09:48:20;93689.03;;;1.74
76347;BMP280;65171;48.378;10.010;2023-01-16T09:50:52;93702.63;;;1.89
76347;BMP280;65171;48.378;10.010;2023-01-16T09:56:11;93721.16;;;2.27
76347;BMP280;65171;48.378;10.010;2023-01-16T09:58:40;93725.44;;;2.33
76347;BMP280;65171;48.378;10.010;2023-01-16T10:01:13;93689.31;;;2.28
76347;BMP280;65171;48.378;10.010;2023-01-16T10:03:38;93696.63;;;2.31
76347;BMP280;65171;48.378;10.010;2023-01-16T10:09:24;93709.44;;;2.50
76347;BMP280;65171;48.378;10.010;2023-01-16T10:12:01;93714.34;;;2.28
76347;BMP280;65171;48.378;10.010;2023-01-16T10:14:41;93706.69;;;2.39
76347;BMP280;65171;48.378;10.010;2023-01-16T10:22:47;93682.56;;;2.58
76347;BMP280;65171;48.378;10.010;2023-01-16T10:30:35;93626.91;;;2.64
76347;BMP280;65171;48.378;10.010;2023-01-16T10:33:23;93616.78;;;2.61
76347;BMP280;65171;48.378;10.010;2023-01-16T10:35:51;93624.47;;;2.84
76347;BMP280;65171;48.378;10.010;2023-01-16T10:38:24;93618.94;;;2.79
76347;BMP280;65171;48.378;10.010;2023-01-16T10:40:51;93631.59;;;2.74
76347;BMP280;65171;48.378;10.010;2023-01-16T10:43:31;93592.72;;;2.69
76347;BMP280;65171;48.378;10.010;2023-01-16T10:45:59;93601.16;;;2.87
76347;BMP280;65171;48.378;10.010;2023-01-16T10:48:26;93571.16;;;2.75
76347;BMP280;65171;48.378;10.010;2023-01-16T10:50:53;93583.41;;;2.90
76347;BMP280;65171;48.378;10.010;2023-01-16T10:53:19;93594.41;;;2.77
76347;BMP280;65171;48.378;10.010;2023-01-16T10:55:46;93603.69;;;2.85
76347;BMP280;65171;48.378;10.010;2023-01-16T10:58:26;93588.28;;;2.84
76347;BMP280;65171;48.378;10.010;2023-01-16T11:00:57;93603.13;;;2.92
76347;BMP280;65171;48.378;10.010;2023-01-16T11:03:35;93587.72;;;2.62
76347;BMP280;65171;48.378;10.010;2023-01-16T11:08:47;93612.91;;;3.04
76347;BMP280;65171;48.378;10.010;2023-01-16T11:11:14;93555.84;;;2.57
76347;BMP280;65171;48.378;10.010;2023-01-16T11:13:40;93536.88;;;2.61
76347;BMP280;65171;48.378;10.010;2023-01-16T11:16:19;93596.66;;;3.08
76347;BMP280;65171;48.378;10.010;2023-01-16T11:18:45;93587.34;;;2.76
76347;BMP280;65171;48.378;10.010;2023-01-16T11:21:30;93601.41;;;2.89
76347;BMP280;65171;48.378;10.010;2023-01-16T11:24:01;93569.88;;;2.76
76347;BMP280;65171;48.378;10.010;2023-01-16T11:26:29;93556.16;;;2.83
76347;BMP280;65171;48.378;10.010;2023-01-16T11:28:56;93569.28;;;2.88
76347;BMP280;65171;48.378;10.010;2023-01-16T11:31:24;93563.44;;;2.86
76347;BMP280;65171;48.378;10.010;2023-01-16T11:33:57;93563.63;;;2.94
76347;BMP280;65171;48.378;10.010;2023-01-16T11:36:24;93575.09;;;3.14
76347;BMP280;65171;48.378;10.010;2023-01-16T11:38:51;93575.16;;;3.09
76347;BMP280;65171;48.378;10.010;2023-01-16T11:41:26;93561.66;;;2.89
76347;BMP280;65171;48.378;10.010;2023-01-16T11:44:29;93569.97;;;2.94
76347;BMP280;65171;48.378;10.010;2023-01-16T11:46:57;93588.38;;;2.73
76347;BMP280;65171;48.378;10.010;2023-01-16T11:49:36;93583.59;;;2.98
76347;BMP280;65171;48.378;10.010;2023-01-16T11:52:02;93536.88;;;2.85
76347;BMP280;65171;48.378;10.010;2023-01-16T11:54:30;93569.69;;;2.98
76347;BMP280;65171;48.378;10.010;2023-01-16T11:57:19;93546.94;;;2.94
76347;BMP280;65171;48.378;10.010;2023-01-16T11:59:55;93567.50;;;3.15
76347;BMP280;65171;48.378;10.010;2023-01-16T12:02:46;93575.19;;;3.03
76347;BMP280;65171;48.378;10.010;2023-01-16T12:07:57;93562.31;;;3.00
76347;BMP280;65171;48.378;10.010;2023-01-16T12:10:40;93536.56;;;2.94
76347;BMP280;65171;48.378;10.010;2023-01-16T12:13:09;93511.22;;;2.98
76347;BMP280;65171;48.378;10.010;2023-01-16T12:16:10;93540.16;;;3.13
76347;BMP280;65171;48.378;10.010;2023-01-16T12:18:32;93513.69;;;3.25
76347;BMP280;65171;48.378;10.010;2023-01-16T12:21:01;93507.38;;;3.25
76347;BMP280;65171;48.378;10.010;2023-01-16T12:26:16;93484.13;;;3.41
76347;BMP280;65171;48.378;10.010;2023-01-16T12:39:43;93426.75;;;3.14
76347;BMP280;65171;48.378;10.010;2023-01-16T12:42:19;93456.00;;;3.44
76347;BMP280;65171;48.378;10.010;2023-01-16T12:45:20;93450.34;;;3.50
76347;BMP280;65171;48.378;10.010;2023-01-16T12:53:22;93409.75;;;3.54
76347;BMP280;65171;48.378;10.010;2023-01-16T12:58:45;93379.56;;;3.58
76347;BMP280;65171;48.378;10.010;2023-01-16T13:01:16;93324.09;;;3.23
76347;BMP280;65171;48.378;10.010;2023-01-16T13:03:55;93365.16;;;3.54
76347;BMP280;65171;48.378;10.010;2023-01-16T13:06:39;93328.69;;;3.39
76347;BMP280;65171;48.378;10.010;2023-01-16T13:09:13;93398.38;;;3.71
76347;BMP280;65171;48.378;10.010;2023-01-16T13:11:50;93417.16;;;3.33
76347;BMP280;65171;48.378;10.010;2023-01-16T13:14:18;93443.63;;;3.40
76347;BMP280;65171;48.378;10.010;2023-01-16T13:17:00;93448.53;;;3.52
76347;BMP280;65171;48.378;10.010;2023-01-16T13:19:29;93442.00;;;3.50
76347;BMP280;65171;48.378;10.010;2023-01-16T13:22:06;93438.38;;;3.36
76347;BMP280;65171;48.378;10.010;2023-01-16T13:24:46;93416.69;;;3.29
76347;BMP280;65171;48.378;10.010;2023-01-16T13:27:17;93382.38;;;3.21
76347;BMP280;65171;48.378;10.010;2023-01-16T13:29:51;93389.28;;;3.33
76347;BMP280;65171;48.378;10.010;2023-01-16T13:32:29;93415.72;;;3.45
76347;BMP280;65171;48.378;10.010;2023-01-16T13:35:06;93424.97;;;3.16
76347;BMP280;65171;48.378;10.010;2023-01-16T13:42:55;93375.78;;;3.37
76347;BMP280;65171;48.378;10.010;2023-01-16T13:45:32;93391.53;;;3.35
76347;BMP280;65171;48.378;10.010;2023-01-16T13:47:58;93365.19;;;3.36
76347;BMP280;65171;48.378;10.010;2023-01-16T13:50:26;93362.47;;;3.30
76347;BMP280;65171;48.378;10.010;2023-01-16T13:53:13;93253.81;;;2.80
76347;BMP280;65171;48.378;10.010;2023-01-16T13:55:39;93303.84;;;3.23
76347;BMP280;65171;48.378;10.010;2023-01-16T13:58:22;93322.41;;;3.52
76347;BMP280;65171;48.378;10.010;2023-01-16T14:01:32;93337.31;;;3.54
76347;BMP280;65171;48.378;10.010;2023-01-16T14:06:59;93296.59;;;3.51
76347;BMP280;65171;48.378;10.010;2023-01-16T14:09:24;93304.47;;;3.66
76347;BMP280;65171;48.378;10.010;2023-01-16T14:17:05;93247.34;;;3.41
76347;BMP280;65171;48.378;10.010;2023-01-16T14:19:37;93304.41;;;3.84
76347;BMP280;65171;48.378;10.010;2023-01-16T14:22:02;93292.13;;;3.61
76347;BMP280;65171;48.378;10.010;2023-01-16T14:24:39;93307.31;;;3.60
76347;BMP280;65171;48.378;10.010;2023-01-16T14:27:11;93276.91;;;3.31
76347;BMP280;65171;48.378;10.010;2023-01-16T14:29:45;93321.25;;;3.92
76347;BMP280;65171;48.378;10.010;2023-01-16T14:34:38;93312.13;;;3.78
76347;BMP280;65171;48.378;10.010;2023-01-16T14:37:22;93319.53;;;3.89
76347;BMP280;65171;48.378;10.010;2023-01-16T14:42:21;93281.03;;;3.87
76347;BMP280;65171;48.378;10.010;2023-01-16T14:47:26;93267.75;;;4.06
76347;BMP280;65171;48.378;10.010;2023-01-16T14:50:04;93274.88;;;4.20
76347;BMP280;65171;48.378;10.010;2023-01-16T14:52:48;93265.09;;;4.14
76347;BMP280;65171;48.378;10.010;2023-01-16T14:55:15;93263.81;;;4.28
76347;BMP280;65171;48.378;10.010;2023-01-16T14:57:41;93255.53;;;4.22
76347;BMP280;65171;48.378;10.010;2023-01-16T15:00:10;93259.84;;;4.36
76347;BMP280;65171;48.378;10.010;2023-01-16T15:02:41;93251.69;;;4.38
76347;BMP280;65171;48.378;10.010;2023-01-16T15:05:15;93219.28;;;4.22
76347;BMP280;65171;48.378;10.010;2023-01-16T15:07:56;93245.69;;;4.34
76347;BMP280;65171;48.378;10.010;2023-01-16T15:12:50;93223.81;;;4.25
76347;BMP280;65171;48.378;10.010;2023-01-16T15:15:27;93234.31;;;4.32
76347;BMP280;65171;48.378;10.010;2023-01-16T15:17:55;93242.03;;;4.26
76347;BMP280;65171;48.378;10.010;2023-01-16T15:20:28;93228.22;;;4.21
76347;BMP280;65171;48.378;10.010;2023-01-16T15:22:54;93218.84;;;4.05
76347;BMP280;65171;48.378;10.010;2023-01-16T15:25:42;93230.25;;;4.07
76347;BMP280;65171;48.378;10.010;2023-01-16T15:28:15;93226.59;;;4.12
76347;BMP280;65171;48.378;10.010;2023-01-16T15:30:44;93178.63;;;3.75
76347;BMP280;65171;48.378;10.010;2023-01-16T15:33:24;93177.56;;;3.78
76347;BMP280;65171;48.378;10.010;2023-01-16T15:35:57;93157.50;;;3.66
76347;BMP280;65171;48.378;10.010;2023-01-16T15:38:24;93167.59;;;3.82
76347;BMP280;65171;48.378;10.010;2023-01-16T15:40:50;93207.81;;;4.13
76347;BMP280;65171;48.378;10.010;2023-01-16T15:43:16;93190.44;;;3.94
76347;BMP280;65171;48.378;10.010;2023-01-16T15:46:03;93187.16;;;4.55
76347;BMP280;65171;48.378;10.010;2023-01-16T15:48:39;93195.16;;;4.25
76347;BMP280;65171;48.378;10.010;2023-01-16T15:51:11;93206.22;;;4.30
76347;BMP280;65171;48.378;10.010;2023-01-16T15:53:39;93168.44;;;4.16
76347;BMP280;65171;48.378;10.010;2023-01-16T15:56:09;93191.94;;;4.21
76347;BMP280;65171;48.378;10.010;2023-01-16T15:58:40;93192.03;;;4.28
76347;BMP280;65171;48.378;10.010;2023-01-16T16:01:05;93180.47;;;4.24
76347;BMP280;65171;48.378;10.010;2023-01-16T16:03:44;93187.75;;;4.27
76347;BMP280;65171;48.378;10.010;2023-01-16T16:06:12;93167.28;;;4.12
76347;BMP280;65171;48.378;10.010;2023-01-16T16:08:40;93173.28;;;4.16
76347;BMP280;65171;48.378;10.010;2023-01-16T16:11:07;93177.78;;;4.19